createdAt,value
2017-12-20T00:01:05.258Z,23.57
2017-12-20T00:06:06.077Z,22.17
2017-12-20T00:11:06.882Z,21.23
2017-12-20T00:16:10.777Z,20.33
2017-12-20T00:21:12.361Z,26.73
2017-12-20T00:26:13.185Z,22.10
2017-12-20T00:31:13.966Z,22.00
2017-12-20T00:36:14.783Z,20.03
2017-12-20T00:41:29.173Z,21.30
2017-12-20T00:46:29.965Z,18.57
2017-12-20T00:51:30.749Z,18.03
2017-12-20T00:56:31.545Z,18.97
2017-12-20T01:01:32.343Z,20.17
2017-12-20T01:06:33.162Z,21.17
2017-12-20T01:11:37.564Z,14.87
2017-12-20T01:16:38.345Z,18.57
2017-12-20T01:21:39.161Z,17.90
2017-12-20T01:26:39.959Z,18.70
2017-12-20T01:31:40.771Z,18.60
2017-12-20T01:36:41.622Z,16.80
2017-12-20T01:41:42.493Z,17.90
2017-12-20T01:46:43.358Z,17.90
2017-12-20T01:51:44.176Z,14.43
2017-12-20T01:56:44.985Z,19.00
2017-12-20T02:01:45.782Z,17.87
2017-12-20T02:06:46.599Z,16.47
2017-12-20T02:11:47.441Z,20.00
2017-12-20T02:16:48.256Z,17.57
2017-12-20T02:22:13.588Z,15.30
2017-12-20T02:27:14.383Z,18.07
2017-12-20T02:32:15.204Z,17.60
2017-12-20T02:37:16.043Z,16.33
2017-12-20T02:42:16.879Z,15.17
2017-12-20T02:47:17.697Z,17.27
2017-12-20T02:52:31.678Z,14.00
2017-12-20T02:57:32.485Z,13.23
2017-12-20T03:02:33.273Z,14.50
2017-12-20T03:07:34.077Z,13.60
2017-12-20T03:12:34.875Z,17.00
2017-12-20T03:17:35.717Z,16.53
2017-12-20T03:22:36.522Z,13.50
2017-12-20T03:27:37.313Z,13.70
2017-12-20T03:32:38.106Z,14.70
2017-12-20T03:37:49.302Z,13.80
2017-12-20T03:42:50.100Z,14.47
2017-12-20T03:47:50.911Z,13.33
2017-12-20T03:52:51.706Z,16.07
2017-12-20T03:57:52.541Z,15.97
2017-12-20T04:02:53.342Z,12.33
2017-12-20T04:07:54.157Z,17.97
2017-12-20T04:13:16.345Z,16.97
2017-12-20T04:18:17.150Z,15.53
2017-12-20T04:23:17.958Z,14.47
2017-12-20T04:28:18.765Z,14.83
2017-12-20T04:33:19.558Z,18.60
2017-12-20T04:38:20.362Z,16.37
2017-12-20T04:43:21.160Z,18.67
2017-12-20T04:48:28.528Z,18.90
2017-12-20T04:53:29.416Z,16.43
2017-12-20T04:58:30.201Z,18.93
2017-12-20T05:03:31.044Z,17.43
2017-12-20T05:08:31.817Z,17.80
2017-12-20T05:13:32.659Z,17.43
2017-12-20T05:18:33.476Z,17.30
2017-12-20T05:23:36.333Z,19.00
2017-12-20T05:28:37.151Z,19.40
2017-12-20T05:33:37.945Z,17.20
2017-12-20T05:38:38.772Z,17.43
2017-12-20T05:43:39.570Z,19.33
2017-12-20T05:48:40.398Z,16.10
2017-12-20T05:53:48.096Z,17.43
2017-12-20T05:59:13.534Z,17.10
2017-12-20T06:04:14.322Z,17.00
2017-12-20T06:09:21.593Z,18.60
2017-12-20T06:14:22.399Z,17.30
2017-12-20T06:19:23.253Z,15.60
2017-12-20T06:24:24.033Z,15.47
2017-12-20T06:29:24.938Z,16.17
2017-12-20T06:34:25.775Z,14.53
2017-12-20T06:39:26.622Z,16.83
2017-12-20T06:44:27.440Z,18.33
2017-12-20T06:49:28.240Z,14.83
2017-12-20T06:54:29.025Z,14.93
2017-12-20T06:59:29.824Z,18.03
2017-12-20T07:04:47.881Z,22.20
2017-12-20T07:09:48.689Z,18.63
2017-12-20T07:14:49.489Z,25.27
2017-12-20T07:19:50.267Z,18.57
2017-12-20T07:24:51.058Z,19.50
2017-12-20T07:29:51.862Z,25.07
2017-12-20T07:34:52.682Z,22.97
2017-12-20T07:39:53.499Z,23.20
2017-12-20T07:44:54.320Z,27.17
2017-12-20T07:49:55.163Z,31.03
2017-12-20T07:54:56.032Z,23.30
2017-12-20T07:59:56.885Z,25.97
2017-12-20T08:04:57.749Z,33.43
2017-12-20T08:09:58.586Z,27.73
2017-12-20T08:14:59.429Z,26.40
2017-12-20T08:20:00.263Z,28.37
2017-12-20T08:25:01.141Z,28.97
2017-12-20T08:30:01.963Z,29.77
2017-12-20T08:35:02.857Z,22.20
2017-12-20T08:40:03.681Z,30.80
2017-12-20T08:45:04.520Z,24.70
2017-12-20T08:50:05.359Z,29.20
2017-12-20T08:55:06.225Z,25.27
2017-12-20T09:00:07.093Z,25.70
2017-12-20T09:05:23.883Z,25.53
2017-12-20T09:10:28.686Z,26.20
2017-12-20T09:15:29.489Z,21.80
2017-12-20T09:20:41.375Z,28.37
2017-12-20T09:25:42.209Z,24.67
2017-12-20T09:30:43.066Z,25.53
2017-12-20T09:35:43.931Z,24.07
2017-12-20T09:40:44.796Z,20.97
2017-12-20T09:45:45.633Z,27.70
2017-12-20T09:50:46.458Z,23.77
2017-12-20T09:55:47.313Z,28.17
2017-12-20T10:00:51.743Z,23.27
2017-12-20T10:05:52.584Z,21.63
2017-12-20T10:10:53.397Z,21.80
2017-12-20T10:15:54.476Z,23.70
2017-12-20T10:20:59.806Z,20.80
2017-12-20T10:26:05.294Z,18.77
2017-12-20T10:31:06.286Z,17.10
2017-12-20T10:36:07.347Z,18.00
2017-12-20T10:41:10.417Z,22.77
2017-12-20T10:46:11.510Z,21.57
2017-12-20T10:51:12.518Z,21.47
2017-12-20T10:56:13.619Z,19.23
2017-12-20T11:01:15.063Z,18.17
2017-12-20T11:06:16.278Z,27.03
2017-12-20T11:11:17.484Z,15.87
2017-12-20T11:16:18.591Z,16.80
2017-12-20T11:21:19.603Z,18.17
2017-12-20T11:26:27.174Z,18.30
2017-12-20T11:31:29.322Z,13.20
2017-12-20T11:36:30.578Z,14.30
2017-12-20T11:41:31.637Z,12.73
2017-12-20T11:46:32.752Z,18.87
2017-12-20T11:51:46.673Z,22.43
2017-12-20T11:56:55.654Z,16.87
2017-12-20T12:07:32.876Z,14.37
2017-12-20T12:12:33.882Z,16.00
2017-12-20T12:17:34.996Z,17.90
2017-12-20T12:22:36.085Z,18.47
2017-12-20T12:27:37.216Z,18.60
2017-12-20T12:32:53.660Z,22.97
2017-12-20T12:37:59.862Z,21.50
2017-12-20T12:48:39.398Z,21.70
2017-12-20T12:59:21.957Z,17.60
2017-12-20T13:04:49.020Z,16.30
2017-12-20T13:15:30.234Z,15.00
2017-12-20T13:20:31.323Z,19.60
2017-12-20T13:25:32.368Z,16.40
2017-12-20T13:30:33.415Z,18.07
2017-12-20T13:35:34.457Z,18.10
2017-12-20T13:40:35.535Z,17.03
2017-12-20T13:45:56.184Z,21.30
2017-12-20T13:50:57.317Z,17.90
2017-12-20T13:55:58.350Z,19.93
2017-12-20T14:00:59.439Z,20.50
2017-12-20T14:06:00.477Z,18.17
2017-12-20T14:27:25.234Z,16.40
2017-12-20T14:32:26.298Z,15.70
2017-12-20T14:37:30.391Z,16.70
2017-12-20T14:42:31.483Z,13.00
2017-12-20T14:47:32.531Z,31.60
2017-12-20T14:52:40.369Z,35.53
2017-12-20T14:57:41.398Z,45.97
2017-12-20T15:02:42.462Z,44.97
2017-12-20T15:07:43.489Z,43.70
2017-12-20T15:12:44.548Z,46.50
2017-12-20T15:17:45.601Z,52.83
2017-12-20T15:22:46.698Z,52.40
2017-12-20T15:27:49.772Z,38.97
2017-12-20T15:32:50.877Z,53.60
2017-12-20T15:37:51.967Z,49.13
2017-12-20T15:42:52.965Z,52.17
2017-12-20T15:47:54.970Z,49.13
2017-12-20T15:53:01.021Z,46.20
2017-12-20T15:58:07.814Z,54.53
2017-12-20T16:03:08.800Z,46.23
2017-12-20T16:08:09.972Z,46.63
2017-12-20T16:13:11.002Z,48.90
2017-12-20T16:18:12.050Z,59.20
2017-12-20T16:23:17.830Z,44.63
2017-12-20T16:28:19.601Z,47.80
2017-12-20T16:33:20.694Z,47.93
2017-12-20T16:38:23.831Z,47.30
2017-12-20T16:43:25.975Z,49.53
2017-12-20T16:48:27.074Z,53.33
2017-12-20T16:53:40.451Z,48.33
2017-12-20T16:58:41.538Z,63.20
2017-12-20T17:03:43.064Z,50.83
2017-12-20T17:08:48.941Z,53.63
2017-12-20T17:13:50.011Z,54.97
2017-12-20T17:18:56.604Z,55.60
2017-12-20T17:23:57.763Z,60.40
2017-12-20T17:29:00.882Z,51.80
2017-12-20T17:34:01.976Z,53.33
2017-12-20T17:39:02.988Z,53.70
2017-12-20T17:44:04.814Z,58.77
2017-12-20T17:49:23.328Z,54.07
2017-12-20T17:54:24.449Z,53.17
2017-12-20T17:59:25.527Z,55.77
2017-12-20T18:04:34.499Z,55.43
2017-12-20T18:09:35.701Z,58.40
2017-12-20T18:14:36.757Z,57.23
2017-12-20T18:19:37.820Z,59.87
2017-12-20T18:24:42.202Z,51.50
2017-12-20T18:29:49.882Z,58.07
2017-12-20T18:34:51.041Z,54.80
2017-12-20T18:39:52.027Z,62.43
2017-12-20T18:44:53.173Z,58.27
2017-12-20T18:49:54.188Z,68.10
2017-12-20T18:54:55.301Z,46.57
2017-12-20T18:59:56.281Z,49.07
2017-12-20T19:04:59.411Z,50.07
2017-12-20T19:10:00.480Z,47.67
2017-12-20T19:15:02.723Z,45.50
2017-12-20T19:20:03.938Z,40.37
2017-12-20T19:25:12.651Z,63.13
2017-12-20T19:30:13.719Z,46.67
2017-12-20T19:35:16.881Z,45.00
2017-12-20T19:40:17.973Z,42.53
2017-12-20T19:45:19.110Z,41.60
2017-12-20T19:50:20.187Z,49.10
2017-12-20T19:55:21.174Z,47.27
2017-12-20T20:00:22.292Z,48.63
2017-12-20T20:05:23.327Z,52.27
2017-12-20T20:10:24.433Z,52.93
2017-12-20T20:15:26.297Z,47.23
2017-12-20T20:20:27.379Z,52.90
2017-12-20T20:25:28.470Z,54.00
2017-12-20T20:30:29.503Z,50.73
2017-12-20T20:35:30.516Z,52.97
2017-12-20T20:40:34.885Z,48.73
2017-12-20T20:45:41.915Z,36.50
2017-12-20T20:50:42.740Z,19.77
2017-12-20T20:55:43.631Z,12.00
2017-12-20T21:00:51.202Z,13.20
2017-12-20T21:05:54.135Z,9.07
2017-12-20T21:10:55.005Z,14.00
2017-12-20T21:15:55.891Z,10.17
2017-12-20T21:20:56.776Z,21.10
2017-12-20T21:25:57.673Z,12.37
2017-12-20T21:30:58.553Z,10.17
2017-12-20T21:36:01.164Z,19.70
2017-12-20T21:41:02.077Z,42.73
2017-12-20T21:46:06.513Z,39.10
2017-12-20T21:51:14.125Z,42.10
2017-12-20T21:56:14.992Z,34.30
2017-12-20T22:01:15.904Z,43.97
2017-12-20T22:06:16.780Z,40.63
2017-12-20T22:11:18.685Z,38.90
2017-12-20T22:16:19.572Z,45.57
2017-12-20T22:21:23.923Z,48.10
2017-12-20T22:26:24.824Z,44.57
2017-12-20T22:31:26.729Z,47.50
2017-12-20T22:36:27.616Z,41.83
2017-12-20T22:41:28.504Z,44.93
2017-12-20T22:46:29.354Z,47.00
2017-12-20T22:51:30.260Z,41.67
2017-12-20T22:56:31.160Z,41.90
2017-12-20T23:01:35.418Z,44.47
2017-12-20T23:06:39.705Z,39.17
2017-12-20T23:11:40.557Z,32.80
2017-12-20T23:16:41.447Z,35.90
2017-12-20T23:21:42.373Z,35.43
2017-12-20T23:26:43.222Z,32.73
2017-12-20T23:31:44.128Z,30.33
2017-12-20T23:36:45.035Z,26.03
2017-12-20T23:41:45.868Z,29.10
2017-12-20T23:46:46.751Z,23.20
2017-12-20T23:51:47.575Z,21.50
2017-12-20T23:56:48.421Z,20.30
